Sousse, Tunisia
Current Conditions -  °F | °C
As of 4:00 PM on Thursday 30 Oct 2014 (Local Time) from DTMB Reporting Station
Few Clouds Few Clouds  
Wind Chill: 23°   Ceiling: Unl
Heat Index: 23°   Visibility: 6mi
Dew Point: 12°   Wind: 7mph
Humidity: 50%   Direction: 350°N
Pressure: 30.12"   Gusts: NA
Location:  35.82°N, 10.63°E
Report Text: DTMB 301500Z 35006KT 9999 FEW026 23/12 Q1020 NOSIG
Loading
Personal Weather Stations






























Interactive Weather Map
Tropical Storm Tracking
New forecast layout! Learn more

10-Day Weather Forecast

Advertisements
Track Severe Weather on mobile